RLSO2: Arkansas River, Ralston, OK

                                SHEF ID:       RLSO2     Arkansas River at Ralston, OK
STATION TYPE:
Regulating: Stage = 16.00, Flow = 78729

PRECIP STAGE STAGE(2) RIV-FLOW AIR-TEMP BAT-LOAD
in ft ft cfs F volt
Ccp-Rev Ccp-Rev Ccp-Rev Ccp-Rev Ccp-Rev Ccp-Rev
(America/Chicago)
03/27 00:00 0.00 3.31 3.32 437 75.20 12.77
03/27 01:00 0.00 3.25 3.32 397 70.34 12.77
03/27 02:00 0.00 3.25 3.30 397 67.46 12.76
03/27 03:00 0.00 3.24 3.29 391 64.40 12.76
03/27 04:00 0.00 3.18 3.28 354 59.18 12.74
03/27 05:00 0.00 3.21 3.28 372 57.38 12.73
03/27 06:00 0.00 3.21 3.26 372 54.14 12.73
03/27 07:00 0.00 3.18 3.25 354 49.10 12.71
03/27 08:00 0.00 3.19 3.24 360 47.66 12.71
03/27 09:00 0.01 3.16 3.24 342 47.48 12.70
03/27 10:00 0.00 3.16 3.25 342 47.84 12.73
03/27 11:00 0.00 3.17 3.24 348 50.36 12.77
03/27 12:00 0.00 3.17 3.24 348 57.20 13.10
03/27 13:00 0.00 3.16 3.24 342 60.62 13.24
03/27 14:00 0.00 3.18 3.25 354 61.52 13.19
03/27 15:00 0.00 3.15 3.25 337 61.88 13.14
03/27 16:00 0.00 3.18 3.24 354 62.42 13.12
03/27 17:00 0.00 3.18 3.26 354 61.52 13.09
03/27 18:00 0.00 3.18 3.24 354 59.72 13.07
03/27 19:00 0.00 3.17 3.24 348 59.00 12.94
03/27 20:00 0.00 3.19 3.25 360 57.92 12.84
03/27 21:00 0.00 3.17 3.29 348 56.84 12.79
03/27 22:00 0.00 3.25 3.30 397 55.22 12.77
03/27 23:00 0.00 3.25 3.28 397 53.78 12.76
Data processed at Sat 28Mar2026 04:21 GMT

NOTICE: If you are parsing this page

Please convert to using our Data API. Starting early 2026 we will be migrating to: https://water.usace.army.mil with modern pages rendered in JavaScript. When this migration completes you will no longer be able to scrape this page! CWMSDataAPI (CDA)

Timeseries IDs (TSIDs)

TSIDs used from left to right in the data table
RALS.Precip-Inc.Total.1Hour.1Hour.Ccp-Rev
RALS.Stage.Inst.1Hour.0.Ccp-Rev
RALS.Stage-Alt.Inst.1Hour.0.Ccp-Rev
RALS.Flow.Inst.1Hour.0.Ccp-Rev
RALS.Temp-Air.Inst.1Hour.0.Ccp-Rev
RALS.Volt-Battery Load.Inst.1Hour.0.Ccp-Rev

                            

All information presented herein is the property of the government of the United States of America and may be revised or deleted at any time without prior notice. Dissemination of this information without the expressed written consent of the Public Affairs Office, Tulsa District U.S. Army Corps of Engineers is strictly prohibited. These data are gathered electronically and, as presented, have NOT undergone any form of quality control. These data are NOT guaranteed to be valid or correct.